Time;durP1;ratioP1;P1;durP2;ratioP2;P2;SDS_P1;SDS_P2;PMS_P1;PMS_P2;Temp;Humidity;BMP_temperature;BMP_pressure;BME280_temperature;BME280_humidity;BME280_pressure;Samples;Min_cycle;Max_cycle;Signal;HPM_P1;HPM_P2
2023/06/06 00:01:21;;;;;;;3.13;1.63;;;16.60;64.80;;;;;;5022310;28;20057;-63
2023/06/06 00:03:48;;;;;;;3.05;1.33;;;16.60;64.80;;;;;;5011038;28;20396;-66
2023/06/06 00:06:16;;;;;;;1.70;0.90;;;16.50;64.90;;;;;;5014279;28;20426;-66
2023/06/06 00:08:42;;;;;;;4.40;2.00;;;16.50;65.00;;;;;;5021872;28;20056;-67
2023/06/06 00:11:09;;;;;;;3.50;1.38;;;16.40;65.10;;;;;;5026575;28;20041;-63
2023/06/06 00:13:35;;;;;;;3.17;1.65;;;16.30;65.30;;;;;;5021220;28;20116;-63
2023/06/06 00:16:02;;;;;;;1.98;1.20;;;16.30;65.40;;;;;;5021586;28;20037;-63
2023/06/06 00:18:28;;;;;;;3.03;1.65;;;16.20;65.50;;;;;;5028032;28;20036;-66
2023/06/06 00:20:54;;;;;;;2.45;1.83;;;16.20;65.50;;;;;;5022951;28;20048;-67
2023/06/06 00:23:23;;;;;;;3.35;1.77;;;16.20;65.60;;;;;;5024659;28;20114;-67
2023/06/06 00:25:50;;;;;;;2.42;1.40;;;16.20;65.70;;;;;;5027259;28;20036;-67
2023/06/06 00:28:16;;;;;;;2.33;1.23;;;16.10;65.80;;;;;;5010872;28;20397;-67
2023/06/06 00:30:42;;;;;;;3.50;1.48;;;16.10;66.10;;;;;;5028991;28;20029;-63
2023/06/06 00:33:08;;;;;;;2.88;1.50;;;16.00;66.00;;;;;;5026907;28;20021;-63
2023/06/06 00:35:34;;;;;;;4.43;1.45;;;16.00;66.10;;;;;;5027230;28;20584;-63
2023/06/06 00:38:00;;;;;;;4.10;1.55;;;16.00;66.10;;;;;;5033445;28;20087;-63
2023/06/06 00:40:26;;;;;;;2.13;1.73;;;16.00;66.00;;;;;;5020734;28;20041;-63
2023/06/06 00:42:52;;;;;;;4.65;1.67;;;15.90;66.20;;;;;;5026762;28;20030;-63
2023/06/06 00:45:17;;;;;;;3.58;1.98;;;15.90;66.30;;;;;;5021306;28;20026;-63
2023/06/06 00:47:44;;;;;;;5.65;1.83;;;15.90;66.50;;;;;;5017595;28;20327;-63
2023/06/06 00:50:12;;;;;;;2.85;1.50;;;15.80;66.40;;;;;;5018073;28;20042;-67
2023/06/06 00:52:40;;;;;;;2.72;1.00;;;15.80;66.60;;;;;;5026288;28;20025;-63
2023/06/06 00:55:07;;;;;;;3.00;1.85;;;15.80;66.50;;;;;;5024603;28;20492;-63
2023/06/06 00:57:35;;;;;;;2.40;1.50;;;15.80;66.60;;;;;;5027273;28;20034;-63
2023/06/06 01:00:05;;;;;;;4.47;1.75;;;15.70;66.60;;;;;;5027550;28;20068;-63
2023/06/06 01:02:37;;;;;;;2.13;1.75;;;15.70;66.80;;;;;;5029606;28;20468;-63
2023/06/06 01:05:09;;;;;;;1.90;1.42;;;15.60;66.90;;;;;;5028434;28;20028;-63
2023/06/06 01:07:37;;;;;;;;;;;15.60;67.10;;;;;;5029004;28;20034;-63
2023/06/06 01:10:08;;;;;;;2.45;1.33;;;15.50;67.50;;;;;;5031320;28;19956;-63
2023/06/06 01:12:59;;;;;;;1.65;0.98;;;15.40;67.50;;;;;;5037978;28;20083;-63
2023/06/06 01:15:35;;;;;;;2.65;1.58;;;15.40;67.40;;;;;;5021323;28;20021;-67
2023/06/06 01:18:02;;;;;;;2.42;1.35;;;15.40;67.40;;;;;;5033871;28;20477;-66
2023/06/06 01:20:30;;;;;;;2.08;1.42;;;15.40;67.50;;;;;;5042228;28;20059;-67
2023/06/06 01:22:57;;;;;;;3.80;1.75;;;15.40;67.60;;;;;;5037862;28;20555;-67
2023/06/06 01:25:25;;;;;;;2.67;1.40;;;15.30;67.60;;;;;;5033336;28;20017;-66
2023/06/06 01:27:53;;;;;;;3.28;1.40;;;15.30;67.70;;;;;;5030074;28;20073;-67
2023/06/06 01:30:23;;;;;;;2.42;1.45;;;15.30;67.70;;;;;;5037820;28;20049;-66
2023/06/06 01:33:00;;;;;;;2.13;1.40;;;15.30;67.80;;;;;;5031290;28;20037;-62
2023/06/06 01:35:42;;;;;;;3.35;1.42;;;15.20;67.80;;;;;;5029236;28;20112;-63
2023/06/06 01:38:20;;;;;;;1.85;1.20;;;15.20;67.80;;;;;;5040850;28;20376;-63
2023/06/06 01:40:49;;;;;;;3.10;2.00;;;15.20;67.80;;;;;;5031373;28;20022;-65
2023/06/06 01:43:16;;;;;;;2.45;1.23;;;15.10;68.00;;;;;;5035379;28;20025;-62
2023/06/06 01:45:43;;;;;;;3.05;1.10;;;15.00;68.20;;;;;;5035456;28;20029;-65
2023/06/06 01:48:09;;;;;;;3.70;1.48;;;15.00;68.30;;;;;;5030906;28;20060;-64
2023/06/06 01:50:36;;;;;;;1.55;1.10;;;15.10;68.30;;;;;;5033483;28;20028;-65
2023/06/06 01:53:02;;;;;;;2.40;1.73;;;15.00;68.20;;;;;;5035851;28;20037;-64
2023/06/06 01:55:28;;;;;;;3.10;1.55;;;15.00;68.50;;;;;;5036218;28;20503;-68
2023/06/06 01:57:54;;;;;;;4.13;1.83;;;14.90;69.30;;;;;;5034896;28;20037;-66
2023/06/06 02:00:20;;;;;;;2.92;1.17;;;14.90;68.80;;;;;;5030875;28;20109;-66
2023/06/06 02:02:46;;;;;;;3.00;1.77;;;14.90;68.90;;;;;;5031734;28;20151;-66
2023/06/06 02:05:12;;;;;;;3.13;1.88;;;14.90;68.90;;;;;;5031310;28;20542;-66
2023/06/06 02:07:37;;;;;;;2.08;1.50;;;14.90;68.90;;;;;;5028173;28;20138;-66
2023/06/06 02:10:07;;;;;;;4.07;1.40;;;14.90;68.90;;;;;;5037585;28;20113;-66
2023/06/06 02:12:33;;;;;;;1.95;1.30;;;14.90;69.00;;;;;;5025117;28;20391;-66
2023/06/06 02:15:00;;;;;;;3.65;1.25;;;14.90;69.00;;;;;;5032398;28;20030;-64
2023/06/06 02:17:26;;;;;;;4.28;2.10;;;14.90;68.90;;;;;;5037686;28;20033;-64
2023/06/06 02:19:52;;;;;;;1.90;1.30;;;14.80;69.00;;;;;;5034415;28;20029;-64
2023/06/06 02:22:18;;;;;;;2.22;1.50;;;14.80;69.00;;;;;;5029323;28;20041;-64
2023/06/06 02:24:43;;;;;;;1.55;1.45;;;14.80;69.10;;;;;;5034771;28;20412;-64
2023/06/06 02:27:09;;;;;;;1.83;1.40;;;14.70;69.10;;;;;;5036691;28;20048;-66
2023/06/06 02:29:36;;;;;;;3.17;1.38;;;14.80;69.10;;;;;;5034074;28;20480;-65
2023/06/06 02:32:06;;;;;;;2.33;1.10;;;14.70;69.20;;;;;;5030581;28;20032;-64
2023/06/06 02:34:31;;;;;;;3.67;1.25;;;14.70;69.20;;;;;;5036264;28;20046;-67
2023/06/06 02:36:59;;;;;;;2.53;1.42;;;14.70;69.30;;;;;;5035541;28;20044;-67
2023/06/06 02:39:25;;;;;;;3.40;1.38;;;14.70;69.50;;;;;;5025104;28;20083;-67
2023/06/06 02:41:51;;;;;;;2.95;1.52;;;14.60;69.50;;;;;;5026635;28;20041;-67
2023/06/06 02:44:17;;;;;;;1.92;1.48;;;14.60;69.70;;;;;;5029515;28;20556;-67
2023/06/06 02:46:43;;;;;;;3.00;1.45;;;14.60;69.70;;;;;;5026593;28;20044;-69
2023/06/06 02:49:09;;;;;;;2.42;1.13;;;14.60;69.90;;;;;;5032733;28;20037;-69
2023/06/06 02:51:36;;;;;;;2.40;1.33;;;14.50;69.80;;;;;;5031957;28;20037;-67
2023/06/06 02:54:02;;;;;;;2.58;1.92;;;14.50;70.00;;;;;;5032760;28;20047;-67
2023/06/06 02:56:28;;;;;;;3.50;1.70;;;14.50;69.90;;;;;;5024894;28;20485;-67
2023/06/06 02:58:54;;;;;;;2.17;1.30;;;14.50;70.00;;;;;;5029807;28;20033;-63
2023/06/06 03:01:22;;;;;;;3.28;2.08;;;14.50;70.00;;;;;;5021017;28;20397;-63
2023/06/06 03:03:48;;;;;;;2.08;1.88;;;14.50;70.10;;;;;;5021262;28;20018;-67
2023/06/06 03:06:18;;;;;;;2.38;1.20;;;14.50;70.20;;;;;;5022070;28;20116;-67
2023/06/06 03:08:44;;;;;;;2.58;1.55;;;14.40;70.30;;;;;;5018040;28;20057;-67
2023/06/06 03:11:11;;;;;;;3.25;1.80;;;14.40;70.40;;;;;;5024880;28;20025;-64
2023/06/06 03:13:37;;;;;;;2.22;1.75;;;14.40;70.30;;;;;;5018464;28;20093;-64
2023/06/06 03:16:02;;;;;;;3.25;1.38;;;14.40;70.40;;;;;;5027605;28;20146;-64
2023/06/06 03:18:28;;;;;;;2.50;1.77;;;14.40;70.40;;;;;;5018844;28;20022;-64
2023/06/06 03:20:54;;;;;;;6.53;1.40;;;14.40;70.40;;;;;;5022912;28;20033;-64
2023/06/06 03:23:21;;;;;;;4.70;1.52;;;14.40;70.40;;;;;;5028557;28;20088;-68
2023/06/06 03:25:51;;;;;;;5.22;2.25;;;14.40;70.40;;;;;;5036650;28;20432;-68
2023/06/06 03:28:20;;;;;;;3.90;1.48;;;14.30;70.50;;;;;;5028098;28;20025;-68
2023/06/06 03:30:46;;;;;;;2.50;1.83;;;14.30;70.50;;;;;;5027331;28;20361;-67
2023/06/06 03:33:12;;;;;;;2.65;1.80;;;14.30;70.70;;;;;;5031860;28;20029;-63
2023/06/06 03:35:38;;;;;;;3.03;1.73;;;14.20;70.90;;;;;;5011288;28;20739;-63
2023/06/06 03:38:04;;;;;;;3.20;1.77;;;14.30;71.00;;;;;;5029401;28;20537;-63
2023/06/06 03:40:33;;;;;;;2.97;1.38;;;14.20;70.90;;;;;;5022092;28;20018;-63
2023/06/06 03:42:58;;;;;;;4.10;1.90;;;14.20;70.90;;;;;;5029887;28;20029;-67
2023/06/06 03:45:24;;;;;;;3.03;1.80;;;14.20;71.00;;;;;;5029579;28;20083;-63
2023/06/06 03:47:52;;;;;;;3.92;1.52;;;14.20;71.00;;;;;;5019526;28;20092;-63
2023/06/06 03:50:18;;;;;;;6.75;2.10;;;14.20;71.20;;;;;;5018600;28;20117;-67
2023/06/06 03:52:45;;;;;;;3.47;1.70;;;14.20;71.40;;;;;;5022085;28;20033;-67
2023/06/06 03:55:11;;;;;;;2.47;1.38;;;14.20;71.40;;;;;;5024129;28;20048;-67
2023/06/06 03:57:37;;;;;;;2.10;1.38;;;14.20;71.40;;;;;;5027634;28;20033;-67
2023/06/06 04:00:10;;;;;;;3.00;1.70;;;14.20;71.30;;;;;;5020883;28;20030;-67
2023/06/06 04:02:46;;;;;;;3.15;1.55;;;14.20;71.30;;;;;;5023271;28;20362;-67
2023/06/06 04:05:12;;;;;;;1.73;1.30;;;14.20;71.40;;;;;;5028531;28;20125;-67
2023/06/06 04:07:38;;;;;;;2.35;1.23;;;14.20;71.40;;;;;;5028356;28;20025;-67
2023/06/06 04:10:05;;;;;;;3.75;2.15;;;14.20;71.50;;;;;;5023548;28;20040;-67
2023/06/06 04:12:31;;;;;;;2.15;1.50;;;14.20;71.50;;;;;;5029055;28;20029;-67
2023/06/06 04:14:56;;;;;;;2.47;1.42;;;14.20;71.60;;;;;;5025848;28;20096;-67
2023/06/06 04:17:24;;;;;;;2.88;1.30;;;14.20;71.50;;;;;;5029075;28;20550;-67
2023/06/06 04:19:50;;;;;;;4.10;1.70;;;14.20;71.50;;;;;;5021960;28;20038;-67
2023/06/06 04:22:17;;;;;;;3.83;1.85;;;14.20;71.60;;;;;;5025253;28;20458;-67
2023/06/06 04:24:43;;;;;;;4.22;1.48;;;14.20;71.60;;;;;;5029448;28;20037;-67
2023/06/06 04:27:09;;;;;;;3.67;1.80;;;14.30;71.60;;;;;;5038446;28;20417;-67
2023/06/06 04:29:35;;;;;;;4.10;1.83;;;14.30;71.70;;;;;;5032030;28;20030;-67
2023/06/06 04:32:02;;;;;;;3.90;1.95;;;14.20;71.70;;;;;;5029850;28;20083;-67
2023/06/06 04:34:31;;;;;;;2.58;1.90;;;14.30;71.80;;;;;;5029080;28;20025;-63
2023/06/06 04:37:04;;;;;;;4.05;1.48;;;14.30;71.80;;;;;;5035248;28;20087;-63
2023/06/06 04:39:34;;;;;;;6.28;1.40;;;14.40;71.90;;;;;;5027791;28;20075;-63
2023/06/06 04:42:06;;;;;;;5.20;1.77;;;14.40;71.80;;;;;;5032156;28;20113;-64
2023/06/06 04:44:42;;;;;;;5.40;2.05;;;14.50;71.80;;;;;;5027126;28;20036;-63
2023/06/06 04:47:10;;;;;;;2.70;1.38;;;14.50;71.80;;;;;;5025481;28;20353;-64
2023/06/06 04:49:38;;;;;;;5.57;1.95;;;14.50;71.70;;;;;;5024502;28;20029;-68
2023/06/06 04:52:12;;;;;;;3.22;1.55;;;14.60;71.70;;;;;;5022251;28;20407;-63
2023/06/06 04:54:40;;;;;;;3.28;2.42;;;14.70;71.60;;;;;;5020759;28;20018;-63
2023/06/06 04:57:15;;;;;;;4.55;1.17;;;14.70;71.60;;;;;;5023066;28;20102;-63
2023/06/06 04:59:41;;;;;;;2.78;1.50;;;14.70;71.50;;;;;;5022530;28;20025;-64
2023/06/06 05:02:07;;;;;;;1.98;1.17;;;14.70;71.50;;;;;;5024710;28;20032;-64
2023/06/06 05:04:33;;;;;;;2.40;1.27;;;14.80;71.50;;;;;;5024158;28;20472;-64
2023/06/06 05:07:00;;;;;;;2.80;1.35;;;14.80;71.50;;;;;;5027397;28;20025;-64
2023/06/06 05:09:26;;;;;;;2.50;1.70;;;14.80;71.60;;;;;;5029818;28;20025;-64
2023/06/06 05:11:53;;;;;;;2.38;1.65;;;14.80;71.50;;;;;;5021655;28;20083;-64
2023/06/06 05:14:25;;;;;;;1.75;1.38;;;14.90;71.50;;;;;;5028986;28;20033;-66
2023/06/06 05:16:54;;;;;;;1.77;1.35;;;14.90;71.40;;;;;;5026984;28;20141;-65
2023/06/06 05:19:21;;;;;;;5.53;1.58;;;14.90;71.20;;;;;;5031317;28;20033;-65
2023/06/06 05:21:47;;;;;;;4.85;1.50;;;15.00;71.30;;;;;;5014744;28;20106;-65
2023/06/06 05:24:14;;;;;;;3.20;1.50;;;15.00;71.30;;;;;;5032098;28;20065;-62
2023/06/06 05:26:40;;;;;;;2.08;1.23;;;15.00;71.20;;;;;;5030795;28;20378;-66
2023/06/06 05:29:06;;;;;;;3.42;1.50;;;15.10;71.00;;;;;;5030751;28;20120;-66
2023/06/06 05:31:33;;;;;;;3.70;1.80;;;15.10;71.00;;;;;;5025342;28;20532;-66
2023/06/06 05:34:00;;;;;;;5.88;2.13;;;15.20;71.00;;;;;;5030339;28;20034;-66
2023/06/06 05:36:26;;;;;;;3.03;1.38;;;15.20;70.90;;;;;;5030018;28;20041;-67
2023/06/06 05:38:52;;;;;;;2.60;1.30;;;15.20;71.00;;;;;;5034535;28;20087;-67
2023/06/06 05:41:18;;;;;;;2.47;1.50;;;15.30;70.90;;;;;;5033944;28;20124;-67
2023/06/06 05:43:47;;;;;;;5.22;2.13;;;15.30;70.80;;;;;;5035401;28;20025;-67
2023/06/06 05:46:14;;;;;;;3.65;1.63;;;15.40;70.70;;;;;;5038977;28;20025;-67
2023/06/06 05:48:40;;;;;;;2.00;1.35;;;15.40;70.70;;;;;;5020451;28;20034;-67
2023/06/06 05:51:07;;;;;;;4.78;1.65;;;15.40;70.50;;;;;;5038923;28;20444;-63
2023/06/06 05:53:32;;;;;;;4.28;1.80;;;15.50;70.40;;;;;;5029570;28;20064;-63
2023/06/06 05:55:58;;;;;;;2.33;1.13;;;15.60;70.30;;;;;;5035712;28;20057;-67
2023/06/06 05:58:24;;;;;;;2.47;1.65;;;15.70;70.20;;;;;;5024580;28;20748;-63
2023/06/06 06:00:50;;;;;;;2.25;1.48;;;15.60;70.00;;;;;;5032134;28;20447;-63
2023/06/06 06:03:15;;;;;;;2.03;1.45;;;15.70;70.00;;;;;;5019454;28;20444;-63
2023/06/06 06:05:42;;;;;;;3.80;1.70;;;15.80;70.00;;;;;;5030554;28;20393;-63
2023/06/06 06:08:08;;;;;;;1.80;1.08;;;15.80;69.70;;;;;;5032314;28;20025;-63
2023/06/06 06:10:35;;;;;;;2.83;1.60;;;15.90;69.60;;;;;;5017085;28;20518;-63
2023/06/06 06:13:01;;;;;;;1.65;1.15;;;16.00;69.40;;;;;;5031677;28;20030;-67
2023/06/06 06:15:30;;;;;;;1.88;1.10;;;16.10;69.30;;;;;;5033761;28;20357;-68
2023/06/06 06:17:56;;;;;;;4.03;2.13;;;16.20;69.10;;;;;;5033847;28;20056;-67
2023/06/06 06:20:22;;;;;;;5.50;1.08;;;16.30;68.90;;;;;;5036283;28;20067;-63
2023/06/06 06:22:48;;;;;;;4.65;1.88;;;16.40;68.70;;;;;;5030202;28;20021;-63
2023/06/06 06:25:14;;;;;;;2.25;1.40;;;16.40;68.40;;;;;;5037915;28;20078;-63
2023/06/06 06:27:41;;;;;;;2.20;1.40;;;16.50;68.30;;;;;;5036936;28;20014;-63
2023/06/06 06:30:09;;;;;;;2.20;1.48;;;16.50;68.20;;;;;;5038045;28;20033;-63
2023/06/06 06:32:36;;;;;;;2.25;1.48;;;16.60;68.10;;;;;;5028385;28;20059;-63
2023/06/06 06:35:03;;;;;;;2.63;1.38;;;16.70;67.90;;;;;;5031764;28;20562;-64
2023/06/06 06:37:30;;;;;;;2.88;1.42;;;16.70;67.70;;;;;;5012083;28;20033;-67
2023/06/06 06:39:59;;;;;;;4.78;1.65;;;16.80;67.50;;;;;;5030577;28;20538;-63
2023/06/06 06:42:26;;;;;;;5.03;1.58;;;16.80;67.40;;;;;;5026889;28;20103;-63
2023/06/06 06:44:52;;;;;;;2.08;1.58;;;16.80;67.30;;;;;;5039153;28;20504;-64
2023/06/06 06:47:18;;;;;;;4.10;1.65;;;16.90;67.30;;;;;;5020929;28;20029;-67
2023/06/06 06:49:44;;;;;;;3.00;1.65;;;16.90;67.20;;;;;;5035602;28;20051;-67
2023/06/06 06:52:15;;;;;;;2.97;1.90;;;17.00;67.10;;;;;;5029723;28;20032;-67
2023/06/06 06:54:52;;;;;;;2.03;1.60;;;17.10;66.90;;;;;;5032173;28;20036;-67
2023/06/06 06:57:20;;;;;;;1.77;1.10;;;17.10;66.90;;;;;;5021726;28;20017;-67
2023/06/06 06:59:46;;;;;;;2.30;1.20;;;17.20;66.80;;;;;;5029541;28;20029;-67
2023/06/06 07:02:11;;;;;;;2.47;1.17;;;17.30;66.60;;;;;;5028532;28;20074;-67
2023/06/06 07:04:39;;;;;;;1.63;0.90;;;17.40;66.30;;;;;;5031834;28;20420;-67
2023/06/06 07:07:06;;;;;;;1.52;1.40;;;17.50;66.10;;;;;;5029714;28;20030;-67
2023/06/06 07:09:32;;;;;;;3.28;2.03;;;17.60;66.00;;;;;;5025559;28;20052;-67
2023/06/06 07:11:58;;;;;;;3.63;1.35;;;17.60;65.90;;;;;;5029116;28;20489;-67
2023/06/06 07:14:25;;;;;;;4.07;1.50;;;17.70;65.70;;;;;;5031303;28;20078;-67
2023/06/06 07:16:51;;;;;;;1.17;0.80;;;17.90;65.50;;;;;;5030765;28;20033;-63
2023/06/06 07:19:17;;;;;;;2.55;1.20;;;18.00;65.30;;;;;;5011810;28;20823;-67
2023/06/06 07:21:43;;;;;;;1.40;1.13;;;18.10;65.10;;;;;;5030258;28;20029;-64
2023/06/06 07:24:09;;;;;;;2.83;0.90;;;18.20;64.90;;;;;;5029547;28;20440;-64
2023/06/06 07:26:35;;;;;;;3.13;1.30;;;18.30;64.70;;;;;;5032116;28;20045;-67
2023/06/06 07:29:01;;;;;;;0.93;0.60;;;18.30;64.60;;;;;;5029012;28;20111;-67
2023/06/06 07:31:27;;;;;;;2.25;1.15;;;18.50;64.40;;;;;;5028949;28;20018;-64
2023/06/06 07:33:53;;;;;;;1.55;1.10;;;18.60;64.20;;;;;;5016326;28;20511;-64
2023/06/06 07:36:18;;;;;;;2.42;1.67;;;18.60;64.00;;;;;;5027464;28;20045;-64
2023/06/06 07:38:44;;;;;;;1.80;1.10;;;18.70;63.90;;;;;;5026010;28;20049;-67
2023/06/06 07:41:10;;;;;;;2.05;1.05;;;18.70;63.80;;;;;;5027258;28;20389;-64
2023/06/06 07:43:36;;;;;;;8.13;1.45;;;18.90;63.80;;;;;;5021160;28;20036;-67
2023/06/06 07:46:01;;;;;;;2.40;1.58;;;18.90;63.50;;;;;;5030502;28;20024;-67
2023/06/06 07:48:27;;;;;;;6.82;1.63;;;19.00;63.30;;;;;;5018763;28;20048;-65
2023/06/06 07:50:54;;;;;;;2.20;1.20;;;19.00;63.10;;;;;;5012361;28;20033;-64
2023/06/06 07:53:20;;;;;;;2.53;1.42;;;19.10;63.10;;;;;;5022569;28;20374;-63
2023/06/06 07:55:47;;;;;;;1.25;0.80;;;19.20;62.90;;;;;;5031925;28;20107;-63
2023/06/06 07:58:12;;;;;;;3.25;1.30;;;19.40;62.70;;;;;;5026707;28;20029;-66
2023/06/06 08:00:41;;;;;;;1.35;1.10;;;19.40;62.50;;;;;;5038235;28;20043;-67
2023/06/06 08:03:07;;;;;;;2.15;1.25;;;19.60;62.40;;;;;;5031323;28;20029;-63
2023/06/06 08:05:33;;;;;;;2.90;1.35;;;19.60;62.20;;;;;;5037802;28;20100;-63
2023/06/06 08:08:00;;;;;;;2.38;1.50;;;19.80;62.00;;;;;;5026883;28;20029;-62
2023/06/06 08:10:26;;;;;;;1.67;1.25;;;19.80;61.80;;;;;;5022169;28;20500;-65
2023/06/06 08:12:52;;;;;;;4.82;1.35;;;19.90;61.70;;;;;;5027378;28;20044;-64
2023/06/06 08:15:17;;;;;;;2.17;1.42;;;20.00;61.60;;;;;;5029909;28;20029;-64
2023/06/06 08:17:44;;;;;;;2.88;1.38;;;20.10;61.50;;;;;;5022168;28;20291;-64
2023/06/06 08:20:11;;;;;;;2.38;1.30;;;20.10;61.20;;;;;;5031983;28;20052;-64
2023/06/06 08:22:38;;;;;;;1.85;1.40;;;20.20;61.00;;;;;;5037011;28;20108;-64
2023/06/06 08:25:07;;;;;;;3.22;1.30;;;20.20;60.60;;;;;;5059184;28;20033;-64
2023/06/06 08:27:34;;;;;;;1.30;0.95;;;20.20;60.80;;;;;;5024305;28;20412;-64
2023/06/06 08:30:00;;;;;;;1.42;0.93;;;20.30;60.80;;;;;;5035406;28;20032;-65
2023/06/06 08:32:26;;;;;;;2.65;1.05;;;20.40;60.80;;;;;;5027604;28;20108;-68
2023/06/06 08:34:53;;;;;;;1.63;1.15;;;20.50;60.60;;;;;;5034533;28;20110;-68
2023/06/06 08:37:19;;;;;;;2.20;1.58;;;20.70;60.50;;;;;;5027565;28;20042;-68
2023/06/06 08:39:45;;;;;;;1.77;1.27;;;20.80;60.30;;;;;;5013486;28;20440;-68
2023/06/06 08:42:11;;;;;;;1.17;1.00;;;20.90;60.10;;;;;;5029206;28;20208;-68
2023/06/06 08:44:37;;;;;;;1.55;1.00;;;21.00;60.00;;;;;;5030952;28;20029;-68
2023/06/06 08:47:04;;;;;;;7.15;1.50;;;21.10;59.80;;;;;;5025317;28;20177;-68
2023/06/06 08:49:31;;;;;;;1.95;1.40;;;21.10;59.60;;;;;;5028413;28;20404;-68
2023/06/06 08:51:58;;;;;;;2.65;1.33;;;21.20;59.40;;;;;;5024889;28;20032;-68
2023/06/06 08:54:25;;;;;;;3.88;1.33;;;21.30;59.10;;;;;;5040682;28;20021;-64
2023/06/06 08:56:54;;;;;;;1.63;1.05;;;21.40;59.00;;;;;;5030865;28;20029;-65
2023/06/06 08:59:20;;;;;;;1.55;1.02;;;21.50;58.90;;;;;;5025188;28;20044;-65
2023/06/06 09:01:53;;;;;;;1.77;1.10;;;21.60;58.60;;;;;;5033930;28;20032;-65
2023/06/06 09:04:20;;;;;;;1.55;1.02;;;21.70;58.50;;;;;;5022963;28;20037;-65
2023/06/06 09:06:46;;;;;;;4.40;1.30;;;21.70;58.40;;;;;;5027854;28;20037;-63
2023/06/06 09:09:12;;;;;;;1.50;0.90;;;21.80;58.30;;;;;;5033163;28;20606;-63
2023/06/06 09:11:39;;;;;;;2.15;1.38;;;21.90;58.20;;;;;;5024421;28;20033;-64
2023/06/06 09:14:05;;;;;;;1.30;0.80;;;22.00;57.90;;;;;;5032367;28;20040;-66
2023/06/06 09:16:34;;;;;;;4.22;1.40;;;22.10;57.70;;;;;;5023837;28;20099;-64
2023/06/06 09:19:02;;;;;;;2.17;1.23;;;22.30;57.50;;;;;;5025451;28;20034;-63
2023/06/06 09:21:32;;;;;;;2.80;1.63;;;22.40;57.20;;;;;;5028899;28;20034;-63
2023/06/06 09:23:57;;;;;;;2.08;1.30;;;22.40;57.00;;;;;;5031439;28;20037;-63
2023/06/06 09:26:23;;;;;;;4.13;1.00;;;22.50;57.10;;;;;;5027183;28;20034;-65
2023/06/06 09:28:50;;;;;;;6.28;1.02;;;22.60;56.90;;;;;;5022735;28;20147;-65
2023/06/06 09:31:27;;;;;;;2.00;1.25;;;22.70;56.80;;;;;;5021483;28;20040;-65
2023/06/06 09:33:54;;;;;;;1.20;0.60;;;22.90;56.50;;;;;;5022038;28;20037;-63
2023/06/06 09:36:26;;;;;;;1.38;0.80;;;23.00;56.20;;;;;;5024519;28;20404;-65
2023/06/06 09:38:54;;;;;;;1.88;1.00;;;23.10;55.90;;;;;;5028481;28;20033;-68
2023/06/06 09:41:21;;;;;;;1.27;1.17;;;23.20;55.70;;;;;;5027683;28;20380;-69
2023/06/06 09:43:47;;;;;;;1.35;1.00;;;23.30;55.60;;;;;;5027521;28;20133;-66
2023/06/06 09:46:17;;;;;;;1.08;0.98;;;23.40;55.50;;;;;;5026688;28;20026;-69
2023/06/06 09:48:55;;;;;;;1.40;1.17;;;23.40;55.00;;;;;;5028511;28;20033;-66
2023/06/06 09:51:21;;;;;;;0.90;0.70;;;23.50;54.90;;;;;;5029217;28;20022;-69
2023/06/06 09:53:51;;;;;;;1.23;0.90;;;23.60;55.00;;;;;;5029653;28;20032;-69
2023/06/06 09:56:22;;;;;;;1.58;1.20;;;23.70;54.70;;;;;;5033188;28;20024;-69
2023/06/06 09:58:55;;;;;;;1.02;0.75;;;23.80;54.80;;;;;;5024044;28;20026;-66
2023/06/06 10:01:32;;;;;;;4.57;1.00;;;23.90;54.60;;;;;;5024136;28;20108;-65
2023/06/06 10:03:58;;;;;;;0.95;0.75;;;24.00;54.10;;;;;;5030830;28;20461;-66
2023/06/06 10:06:33;;;;;;;1.13;0.77;;;24.10;54.20;;;;;;5029144;28;20488;-66
2023/06/06 10:08:59;;;;;;;4.65;1.20;;;24.30;54.10;;;;;;5028329;28;20037;-65
2023/06/06 10:11:27;;;;;;;1.77;1.20;;;24.40;53.80;;;;;;5028928;28;20038;-63
2023/06/06 10:13:54;;;;;;;1.23;1.13;;;24.50;53.40;;;;;;5030709;28;20484;-66
2023/06/06 10:16:20;;;;;;;3.78;1.10;;;24.60;53.20;;;;;;5025870;28;20112;-67
2023/06/06 10:18:48;;;;;;;2.05;1.50;;;24.60;52.90;;;;;;5032549;28;20033;-67
2023/06/06 10:21:17;;;;;;;2.50;1.08;;;24.60;52.90;;;;;;5030387;28;20041;-67
2023/06/06 10:23:44;;;;;;;1.95;1.48;;;24.70;53.10;;;;;;5031133;28;20046;-70
2023/06/06 10:26:22;;;;;;;1.17;1.08;;;24.90;52.90;;;;;;5029604;28;20022;-67
2023/06/06 10:29:02;;;;;;;2.40;1.00;;;25.10;52.60;;;;;;5024261;28;20469;-63
2023/06/06 10:31:39;;;;;;;0.70;0.55;;;25.30;52.50;;;;;;5042713;28;20136;-66
2023/06/06 10:34:10;;;;;;;0.90;0.80;;;25.40;52.10;;;;;;5031203;28;20041;-70
2023/06/06 10:36:40;;;;;;;1.30;1.00;;;25.50;51.80;;;;;;5027839;28;20053;-70
2023/06/06 10:39:23;;;;;;;1.35;1.00;;;25.60;51.70;;;;;;5029764;28;20037;-70
2023/06/06 10:42:06;;;;;;;5.88;1.52;;;25.70;51.50;;;;;;5023455;28;20029;-66
2023/06/06 10:44:45;;;;;;;3.75;1.13;;;25.80;51.00;;;;;;5025117;28;20029;-66
2023/06/06 10:47:30;;;;;;;0.98;0.90;;;25.80;51.00;;;;;;5027258;28;20037;-65
2023/06/06 10:50:08;;;;;;;1.83;1.10;;;25.90;51.00;;;;;;5026746;28;20038;-66
2023/06/06 10:52:50;;;;;;;0.63;0.60;;;26.20;51.00;;;;;;5027583;28;20022;-70
2023/06/06 10:55:16;;;;;;;;;;;26.30;50.80;;;;;;5026376;28;20024;-70
2023/06/06 10:57:54;;;;;;;1.17;1.08;;;26.50;50.50;;;;;;5023837;28;20404;-69
2023/06/06 11:00:24;;;;;;;1.67;1.10;;;26.60;49.90;;;;;;5020936;28;20029;-67
2023/06/06 11:02:50;;;;;;;1.15;1.05;;;26.60;49.40;;;;;;5019303;28;20117;-67
2023/06/06 11:05:15;;;;;;;1.00;0.95;;;26.60;49.30;;;;;;5019419;28;20451;-67
2023/06/06 11:07:50;;;;;;;0.70;0.70;;;26.70;49.30;;;;;;5029203;28;20044;-69
2023/06/06 11:10:22;;;;;;;2.38;1.20;;;26.70;49.30;;;;;;5028553;28;20560;-69
2023/06/06 11:12:49;;;;;;;1.23;0.93;;;26.80;49.10;;;;;;5026963;28;20077;-66
2023/06/06 11:15:29;;;;;;;1.77;1.10;;;26.90;48.90;;;;;;5024449;28;20504;-70
2023/06/06 11:18:03;;;;;;;1.20;0.98;;;27.00;48.70;;;;;;5032221;28;20029;-66
2023/06/06 11:20:38;;;;;;;2.28;1.10;;;27.10;47.90;;;;;;5020469;28;20084;-67
2023/06/06 11:23:05;;;;;;;3.28;1.23;;;27.10;47.70;;;;;;5027493;28;20431;-66
2023/06/06 11:25:38;;;;;;;0.93;0.90;;;27.20;48.00;;;;;;5029954;28;20056;-66
2023/06/06 11:28:05;;;;;;;1.30;1.05;;;27.20;48.10;;;;;;5028906;28;20041;-66
2023/06/06 11:30:35;;;;;;;3.22;1.65;;;27.40;47.80;;;;;;5025190;28;20046;-66
2023/06/06 11:33:01;;;;;;;1.65;1.40;;;27.50;47.70;;;;;;5029406;28;20037;-67
2023/06/06 11:35:32;;;;;;;1.55;0.85;;;27.60;47.50;;;;;;5030028;28;20107;-66
2023/06/06 11:37:58;;;;;;;1.23;1.00;;;27.70;47.40;;;;;;5031280;28;20033;-66
2023/06/06 11:40:28;;;;;;;0.80;0.80;;;27.80;47.50;;;;;;5015927;28;20034;-66
2023/06/06 11:42:54;;;;;;;3.55;1.33;;;28.10;47.40;;;;;;5007276;28;20029;-70
2023/06/06 11:45:20;;;;;;;1.20;1.00;;;28.30;46.90;;;;;;5021979;28;20370;-70
2023/06/06 11:47:46;;;;;;;2.17;0.98;;;28.40;46.80;;;;;;5022026;28;20041;-70
2023/06/06 11:50:12;;;;;;;1.83;1.40;;;28.40;46.50;;;;;;5020398;28;20380;-70
2023/06/06 11:52:48;;;;;;;1.52;1.00;;;28.40;46.20;;;;;;5026316;28;20514;-70
2023/06/06 11:55:15;;;;;;;2.13;0.95;;;28.50;46.40;;;;;;5028686;28;20499;-70
2023/06/06 11:57:41;;;;;;;1.27;0.90;;;28.60;46.20;;;;;;5027690;28;20098;-70
2023/06/06 12:00:14;;;;;;;2.15;1.10;;;28.80;45.90;;;;;;5028307;28;20039;-70
2023/06/06 12:02:40;;;;;;;2.20;1.30;;;28.80;45.60;;;;;;5023142;28;20368;-67
2023/06/06 12:05:20;;;;;;;2.90;1.23;;;28.90;45.20;;;;;;5031484;28;20029;-70
2023/06/06 12:07:50;;;;;;;1.25;1.10;;;28.80;45.30;;;;;;5025617;28;20115;-67
2023/06/06 12:10:28;;;;;;;2.53;1.23;;;28.90;45.20;;;;;;5032354;28;20425;-64
2023/06/06 12:12:54;;;;;;;3.38;1.17;;;29.00;44.90;;;;;;5022878;28;20396;-67
2023/06/06 12:15:21;;;;;;;3.05;1.30;;;29.00;44.70;;;;;;5026710;28;20025;-67
2023/06/06 12:17:46;;;;;;;3.10;1.75;;;29.00;44.70;;;;;;5020113;28;20060;-67
2023/06/06 12:20:23;;;;;;;1.42;1.33;;;29.00;44.60;;;;;;5020480;28;20026;-67
2023/06/06 12:22:49;;;;;;;1.20;1.08;;;29.00;44.10;;;;;;5026867;28;20025;-68
2023/06/06 12:25:26;;;;;;;1.02;0.68;;;29.00;44.60;;;;;;5024778;28;20698;-68
2023/06/06 12:27:53;;;;;;;1.15;1.00;;;29.10;44.70;;;;;;5029355;28;20025;-67
2023/06/06 12:30:32;;;;;;;2.20;1.30;;;29.20;44.10;;;;;;5019966;28;20026;-66
2023/06/06 12:32:59;;;;;;;1.88;0.98;;;29.40;44.00;;;;;;5020549;28;20099;-70
2023/06/06 12:35:26;;;;;;;1.25;1.10;;;29.50;43.50;;;;;;5033316;28;20057;-69
2023/06/06 12:37:52;;;;;;;1.70;1.05;;;29.60;44.10;;;;;;5011734;28;20384;-66
2023/06/06 12:40:26;;;;;;;1.67;1.10;;;29.70;43.50;;;;;;5028174;28;20033;-67
2023/06/06 12:42:56;;;;;;;4.38;1.55;;;29.70;43.30;;;;;;5032913;28;20026;-66
2023/06/06 12:45:24;;;;;;;0.85;0.85;;;29.80;43.10;;;;;;5034127;28;20026;-66
2023/06/06 12:47:51;;;;;;;1.70;0.93;;;29.90;43.10;;;;;;5030236;28;20091;-67
2023/06/06 12:50:21;;;;;;;1.90;0.95;;;30.10;42.80;;;;;;5029030;28;20030;-67
2023/06/06 12:52:47;;;;;;;1.10;1.00;;;30.20;42.30;;;;;;5030099;28;20360;-68